Time;durP1;ratioP1;P1;durP2;ratioP2;P2;SDS_P1;SDS_P2;PMS_P1;PMS_P2;Temp;Humidity;BMP_temperature;BMP_pressure;BME280_temperature;BME280_humidity;BME280_pressure;Samples;Min_cycle;Max_cycle;Signal;HPM_P1;HPM_P2
2023/01/22 00:00:28;;;;;;;12.63;8.05;;;0.90;99.90;;;;;;6221676;22;20020;-82
2023/01/22 00:02:54;;;;;;;12.80;8.32;;;0.70;99.90;;;;;;6245424;22;20039;-82
2023/01/22 00:05:20;;;;;;;16.35;8.45;;;0.60;99.90;;;;;;6221797;22;20093;-81
2023/01/22 00:07:46;;;;;;;17.15;9.07;;;0.70;99.90;;;;;;6248219;22;20042;-83
2023/01/22 00:10:12;;;;;;;15.65;9.07;;;0.60;99.90;;;;;;6231031;22;20439;-82
2023/01/22 00:12:37;;;;;;;16.35;9.13;;;1.00;99.90;;;;;;6273569;22;20055;-81
2023/01/22 00:15:04;;;;;;;16.75;9.10;;;0.80;99.90;;;;;;6254160;22;20098;-81
2023/01/22 00:17:29;;;;;;;16.90;9.50;;;0.70;99.90;;;;;;6248615;22;20022;-81
2023/01/22 00:19:55;;;;;;;18.40;9.93;;;0.60;99.90;;;;;;6245800;22;20016;-81
2023/01/22 00:22:21;;;;;;;19.17;10.00;;;0.70;99.90;;;;;;6245452;22;20015;-81
2023/01/22 00:24:47;;;;;;;27.65;11.90;;;0.40;99.90;;;;;;6244579;22;20086;-80
2023/01/22 00:27:12;;;;;;;20.20;11.75;;;0.60;99.90;;;;;;6247147;22;20331;-80
2023/01/22 00:29:38;;;;;;;30.20;12.30;;;0.40;99.90;;;;;;6246086;22;20016;-82
2023/01/22 00:32:04;;;;;;;23.77;12.15;;;0.70;99.90;;;;;;6246773;22;20015;-82
2023/01/22 00:34:30;;;;;;;21.02;12.38;;;0.50;99.90;;;;;;6247696;22;20382;-80
2023/01/22 00:36:55;;;;;;;20.90;13.07;;;0.20;99.90;;;;;;6221616;22;20442;-79
2023/01/22 00:39:27;;;;;;;20.92;12.52;;;0.40;99.90;;;;;;6247567;22;20627;-82
2023/01/22 00:41:53;;;;;;;20.58;12.82;;;0.50;99.90;;;;;;6245479;22;20008;-81
2023/01/22 00:44:19;;;;;;;25.23;13.38;;;0.50;99.90;;;;;;6246065;22;20018;-81
2023/01/22 00:46:44;;;;;;;24.20;13.88;;;0.40;99.90;;;;;;6243383;22;20296;-81
2023/01/22 00:49:11;;;;;;;25.92;14.35;;;-0.10;99.90;;;;;;6271066;22;20016;-81
2023/01/22 00:51:38;;;;;;;26.52;14.30;;;0.10;99.90;;;;;;6243423;22;20014;-81
2023/01/22 00:54:04;;;;;;;24.42;14.40;;;0.30;99.90;;;;;;6246958;22;20090;-82
2023/01/22 00:56:29;;;;;;;26.60;14.70;;;0.30;99.90;;;;;;6247628;22;20046;-81
2023/01/22 00:58:55;;;;;;;27.02;14.38;;;0.40;99.90;;;;;;6273270;22;20043;-82
2023/01/22 01:01:20;;;;;;;30.75;15.48;;;0.00;99.90;;;;;;6272074;22;20015;-81
2023/01/22 01:03:46;;;;;;;24.17;14.45;;;-0.10;99.90;;;;;;6247111;22;20007;-81
2023/01/22 01:06:15;;;;;;;24.75;14.38;;;0.30;99.90;;;;;;6247607;22;20019;-81
2023/01/22 01:08:42;;;;;;;25.67;14.05;;;0.60;99.90;;;;;;6247437;22;20012;-81
2023/01/22 01:11:12;;;;;;;25.13;15.23;;;0.20;99.90;;;;;;6246981;22;20015;-82
2023/01/22 01:13:40;;;;;;;23.58;14.75;;;0.60;99.90;;;;;;6246410;22;20015;-82
2023/01/22 01:16:10;;;;;;;25.55;13.98;;;0.50;99.90;;;;;;6246869;22;20019;-81
2023/01/22 01:18:36;;;;;;;24.33;14.77;;;0.50;99.90;;;;;;6246935;22;20019;-81
2023/01/22 01:21:03;;;;;;;28.10;14.32;;;0.50;99.90;;;;;;6249647;22;20320;-81
2023/01/22 01:23:30;;;;;;;27.73;14.30;;;0.10;99.90;;;;;;6250836;22;20351;-82
2023/01/22 01:25:56;;;;;;;32.10;13.93;;;0.50;99.90;;;;;;6256363;22;20059;-81
2023/01/22 01:28:21;;;;;;;28.92;14.77;;;0.10;99.90;;;;;;6231669;22;20012;-81
2023/01/22 01:30:47;;;;;;;28.85;15.48;;;0.00;99.90;;;;;;6246687;22;20012;-82
2023/01/22 01:33:13;;;;;;;24.65;15.07;;;0.10;99.90;;;;;;6269986;22;20109;-81
2023/01/22 01:35:39;;;;;;;22.75;15.02;;;0.00;99.90;;;;;;6245286;22;20016;-80
2023/01/22 01:38:05;;;;;;;27.15;15.35;;;0.30;99.90;;;;;;6270344;22;20022;-82
2023/01/22 01:40:31;;;;;;;29.00;16.38;;;0.00;99.90;;;;;;6245348;22;20331;-82
2023/01/22 01:42:57;;;;;;;33.33;16.65;;;0.20;99.90;;;;;;6246820;22;20077;-82
2023/01/22 01:45:25;;;;;;;32.90;16.15;;;0.40;99.90;;;;;;6271098;22;20015;-81
2023/01/22 01:48:10;;;;;;;33.65;16.77;;;0.00;99.90;;;;;;6245931;22;20008;-80
2023/01/22 01:50:41;;;;;;;28.95;15.00;;;0.40;99.90;;;;;;6246447;22;20016;-81
2023/01/22 01:53:08;;;;;;;25.65;15.52;;;0.40;99.90;;;;;;6247062;22;20095;-81
2023/01/22 01:55:37;;;;;;;23.80;14.82;;;0.30;99.90;;;;;;6274668;22;20016;-80
2023/01/22 01:58:09;;;;;;;27.67;14.38;;;0.20;99.90;;;;;;6253992;22;20020;-80
2023/01/22 02:00:38;;;;;;;28.27;15.73;;;0.50;99.90;;;;;;6249070;22;20018;-81
2023/01/22 02:03:04;;;;;;;30.45;15.23;;;0.50;99.90;;;;;;6247070;22;20049;-81
2023/01/22 02:05:35;;;;;;;26.15;15.02;;;0.20;99.90;;;;;;6246288;22;20007;-81
2023/01/22 02:08:00;;;;;;;29.52;15.77;;;0.10;99.90;;;;;;6221536;22;20015;-82
2023/01/22 02:10:26;;;;;;;30.98;16.95;;;0.30;99.90;;;;;;6246154;22;20114;-82
2023/01/22 02:12:55;;;;;;;33.28;16.10;;;0.40;99.90;;;;;;6246957;22;20019;-81
2023/01/22 02:15:21;;;;;;;26.65;16.65;;;0.40;99.90;;;;;;6247332;22;20051;-80
2023/01/22 02:17:47;;;;;;;31.80;16.73;;;0.20;99.90;;;;;;6246792;22;20015;-80
2023/01/22 02:20:13;;;;;;;29.92;16.90;;;0.50;99.90;;;;;;6247140;22;20015;-80
2023/01/22 02:22:39;;;;;;;26.98;15.73;;;0.20;99.90;;;;;;6246645;22;20003;-80
2023/01/22 02:25:42;;;;;;;31.75;16.58;;;0.30;99.90;;;;;;6272951;22;20008;-82
2023/01/22 02:28:08;;;;;;;25.70;14.43;;;0.60;99.90;;;;;;6246575;22;20012;-82
2023/01/22 02:30:33;;;;;;;27.23;13.70;;;0.70;99.90;;;;;;6244666;22;20040;-80
2023/01/22 02:32:59;;;;;;;23.75;12.60;;;0.60;99.90;;;;;;6245754;22;20018;-81
2023/01/22 02:35:25;;;;;;;22.25;12.02;;;0.70;99.90;;;;;;6221832;22;20020;-81
2023/01/22 02:37:51;;;;;;;22.73;12.23;;;0.50;99.90;;;;;;6271979;22;20107;-81
2023/01/22 02:40:16;;;;;;;22.95;12.52;;;0.60;99.90;;;;;;6273559;22;20026;-81
2023/01/22 02:42:42;;;;;;;19.70;11.38;;;0.70;99.90;;;;;;6246380;22;20453;-81
2023/01/22 02:45:08;;;;;;;21.45;11.95;;;0.70;99.90;;;;;;6248183;22;20014;-81
2023/01/22 02:47:35;;;;;;;21.38;10.95;;;0.70;99.90;;;;;;6245953;22;20008;-81
2023/01/22 02:50:01;;;;;;;22.30;11.20;;;0.50;99.90;;;;;;6271991;22;20011;-82
2023/01/22 02:52:27;;;;;;;20.08;10.02;;;0.80;99.90;;;;;;6245757;22;20012;-81
2023/01/22 02:54:52;;;;;;;22.98;11.18;;;0.80;99.90;;;;;;6244726;22;20012;-81
2023/01/22 02:57:18;;;;;;;22.55;10.35;;;0.70;99.90;;;;;;6270973;22;20016;-80
2023/01/22 02:59:44;;;;;;;22.80;10.75;;;0.70;99.90;;;;;;6247590;22;20024;-80
2023/01/22 03:02:10;;;;;;;19.52;9.65;;;0.50;99.90;;;;;;6244426;22;20161;-81
2023/01/22 03:04:36;;;;;;;22.17;9.73;;;0.70;99.90;;;;;;6271000;22;20019;-81
2023/01/22 03:07:01;;;;;;;19.55;9.95;;;0.80;99.90;;;;;;6270469;22;20016;-80
2023/01/22 03:09:28;;;;;;;23.67;9.40;;;0.50;99.90;;;;;;6245588;22;20012;-80
2023/01/22 03:11:54;;;;;;;17.00;8.43;;;0.80;99.90;;;;;;6244878;22;20033;-81
2023/01/22 03:22:34;;;;;;;11.95;6.95;;;0.50;99.90;;;;;;6245126;22;20707;-82
2023/01/22 03:25:03;;;;;;;10.90;6.68;;;0.90;99.90;;;;;;6220845;22;20062;-81
2023/01/22 03:27:30;;;;;;;12.30;6.47;;;0.90;99.90;;;;;;6220364;22;20505;-80
2023/01/22 03:29:57;;;;;;;10.73;6.30;;;1.00;99.90;;;;;;6220074;22;20023;-81
2023/01/22 03:32:23;;;;;;;11.68;6.10;;;0.80;99.90;;;;;;6220434;22;20054;-82
2023/01/22 03:34:49;;;;;;;14.20;7.07;;;0.80;99.90;;;;;;6219650;22;20019;-81
2023/01/22 03:37:15;;;;;;;12.13;6.60;;;0.60;99.90;;;;;;6245474;22;20246;-82
2023/01/22 03:39:41;;;;;;;10.32;5.25;;;0.80;99.90;;;;;;6219794;22;20023;-81
2023/01/22 03:42:07;;;;;;;9.05;5.47;;;0.80;99.90;;;;;;6244303;22;20011;-81
2023/01/22 03:44:33;;;;;;;12.02;5.22;;;0.80;99.90;;;;;;6219789;22;20011;-81
2023/01/22 03:46:59;;;;;;;9.73;5.43;;;0.80;99.90;;;;;;6219430;22;20467;-80
2023/01/22 03:49:24;;;;;;;9.52;5.15;;;0.90;99.90;;;;;;6219129;22;20015;-81
2023/01/22 03:51:50;;;;;;;9.70;5.00;;;0.70;99.90;;;;;;6219952;22;20311;-81
2023/01/22 03:54:16;;;;;;;14.55;5.35;;;0.90;99.90;;;;;;6219559;22;20388;-82
2023/01/22 03:56:42;;;;;;;10.23;5.22;;;0.70;99.90;;;;;;6246248;22;20046;-79
2023/01/22 03:59:09;;;;;;;10.25;5.45;;;0.70;99.90;;;;;;6245976;22;20085;-81
2023/01/22 04:01:35;;;;;;;10.05;5.10;;;0.70;99.90;;;;;;6218939;22;20091;-82
2023/01/22 04:04:02;;;;;;;9.02;4.53;;;0.80;99.90;;;;;;6220775;22;20015;-80
2023/01/22 04:06:29;;;;;;;10.20;4.75;;;0.90;99.90;;;;;;6218921;22;20011;-81
2023/01/22 04:08:55;;;;;;;9.65;4.78;;;1.00;99.90;;;;;;6218517;22;20023;-81
2023/01/22 04:11:22;;;;;;;9.25;4.72;;;1.00;99.90;;;;;;6236005;22;20015;-80
2023/01/22 04:13:48;;;;;;;10.00;5.07;;;0.90;99.90;;;;;;6243270;22;20016;-81
2023/01/22 04:16:14;;;;;;;10.00;5.10;;;0.80;99.90;;;;;;6244131;22;20011;-80
2023/01/22 04:18:40;;;;;;;8.90;5.00;;;0.90;99.90;;;;;;6243343;22;20043;-82
2023/01/22 04:21:07;;;;;;;9.57;5.00;;;0.90;99.90;;;;;;6244113;22;20023;-82
2023/01/22 04:23:33;;;;;;;11.15;5.18;;;0.80;99.90;;;;;;6244386;22;20012;-81
2023/01/22 04:25:58;;;;;;;7.97;4.72;;;0.80;99.90;;;;;;6269653;22;20595;-80
2023/01/22 04:28:25;;;;;;;14.98;5.32;;;0.80;99.90;;;;;;6243803;22;20004;-81
2023/01/22 04:30:52;;;;;;;11.20;5.38;;;0.80;99.90;;;;;;6241461;22;20350;-81
2023/01/22 04:33:18;;;;;;;8.15;5.50;;;1.10;99.90;;;;;;6246914;22;20320;-81
2023/01/22 04:35:47;;;;;;;11.85;5.05;;;0.90;99.90;;;;;;6245900;22;20035;-81
2023/01/22 04:38:14;;;;;;;9.27;5.40;;;0.90;99.90;;;;;;6243688;22;20020;-81
2023/01/22 04:40:40;;;;;;;11.95;5.20;;;1.20;99.90;;;;;;6245111;22;20015;-81
2023/01/22 04:43:09;;;;;;;8.10;5.13;;;0.90;99.90;;;;;;6272670;22;20033;-81
2023/01/22 04:45:35;;;;;;;7.93;4.55;;;0.90;99.90;;;;;;6243598;22;20008;-79
2023/01/22 04:48:01;;;;;;;8.10;4.70;;;1.00;99.90;;;;;;6246212;22;20460;-82
2023/01/22 04:50:29;;;;;;;7.93;4.90;;;1.20;99.90;;;;;;6253058;22;20019;-81
2023/01/22 04:52:56;;;;;;;8.60;5.35;;;1.20;99.90;;;;;;6248923;22;20019;-82
2023/01/22 04:55:29;;;;;;;8.15;4.97;;;1.20;99.90;;;;;;6281186;22;20114;-80
2023/01/22 04:57:56;;;;;;;11.75;5.45;;;1.20;99.90;;;;;;6259492;22;20012;-80
2023/01/22 05:00:23;;;;;;;9.02;5.00;;;1.20;99.90;;;;;;6245222;22;20016;-79
2023/01/22 05:02:49;;;;;;;8.88;5.82;;;1.10;99.90;;;;;;6240831;22;20069;-81
2023/01/22 05:05:14;;;;;;;12.80;5.75;;;1.10;99.90;;;;;;6248182;22;20039;-81
2023/01/22 05:07:45;;;;;;;8.40;5.30;;;1.20;99.90;;;;;;6246690;22;20012;-82
2023/01/22 05:10:14;;;;;;;17.60;5.72;;;1.00;99.90;;;;;;6271766;22;20019;-81
2023/01/22 05:12:39;;;;;;;7.53;5.28;;;1.10;99.90;;;;;;6246359;22;20081;-80
2023/01/22 05:15:06;;;;;;;12.00;5.60;;;1.00;99.90;;;;;;6245017;22;20054;-80
2023/01/22 05:17:31;;;;;;;10.88;5.03;;;1.10;99.90;;;;;;6271101;22;20427;-81
2023/01/22 05:19:57;;;;;;;8.82;5.13;;;1.10;99.90;;;;;;6271967;22;20058;-80
2023/01/22 05:22:23;;;;;;;11.93;5.18;;;1.20;99.90;;;;;;6245483;22;20026;-82
2023/01/22 05:24:48;;;;;;;9.32;5.45;;;1.20;99.90;;;;;;6254093;22;20110;-81
2023/01/22 05:27:19;;;;;;;11.70;5.60;;;1.00;99.90;;;;;;6246064;22;20018;-82
2023/01/22 05:29:44;;;;;;;9.00;4.80;;;1.00;99.90;;;;;;6272960;22;20042;-81
2023/01/22 05:32:10;;;;;;;8.75;4.93;;;1.10;99.90;;;;;;6245719;22;20016;-81
2023/01/22 05:34:36;;;;;;;9.82;4.93;;;1.20;99.90;;;;;;6246764;22;20077;-82
2023/01/22 05:37:01;;;;;;;9.30;4.63;;;1.20;99.90;;;;;;6271820;22;20138;-82
2023/01/22 05:39:27;;;;;;;12.65;4.57;;;0.90;99.90;;;;;;6272342;22;20015;-82
2023/01/22 05:41:53;;;;;;;12.77;5.28;;;1.20;99.90;;;;;;6246844;22;20015;-82
2023/01/22 05:44:19;;;;;;;9.75;5.00;;;1.00;99.90;;;;;;6247373;22;20114;-81
2023/01/22 05:46:44;;;;;;;11.18;5.20;;;1.20;99.90;;;;;;6249240;22;20315;-82
2023/01/22 05:49:10;;;;;;;8.55;5.60;;;1.20;99.90;;;;;;6247301;22;20012;-82
2023/01/22 05:51:36;;;;;;;11.07;4.93;;;1.10;99.90;;;;;;6253798;22;20011;-81
2023/01/22 05:54:02;;;;;;;7.45;4.95;;;1.00;99.90;;;;;;6272346;22;20449;-81
2023/01/22 05:56:47;;;;;;;9.27;4.88;;;1.00;99.90;;;;;;6247550;22;20023;-82
2023/01/22 05:59:13;;;;;;;9.38;5.00;;;0.90;99.90;;;;;;6246671;22;20039;-82
2023/01/22 06:01:39;;;;;;;7.57;5.25;;;1.00;99.90;;;;;;6246652;22;20405;-82
2023/01/22 06:04:04;;;;;;;9.70;4.93;;;0.90;99.90;;;;;;6247073;22;20016;-82
2023/01/22 06:06:30;;;;;;;11.73;5.25;;;1.00;99.90;;;;;;6271445;22;20100;-82
2023/01/22 06:08:56;;;;;;;9.90;4.78;;;0.90;99.90;;;;;;6246133;22;20463;-82
2023/01/22 06:11:22;;;;;;;12.93;5.32;;;1.00;99.90;;;;;;6247478;22;20085;-82
2023/01/22 06:13:48;;;;;;;11.45;4.78;;;1.10;99.90;;;;;;6248913;22;20370;-82
2023/01/22 06:16:13;;;;;;;6.93;4.75;;;1.10;99.90;;;;;;6248292;22;20019;-81
2023/01/22 06:18:39;;;;;;;9.00;5.03;;;1.00;99.90;;;;;;6248073;22;20018;-82
2023/01/22 06:21:06;;;;;;;11.52;5.00;;;1.10;99.90;;;;;;6248178;22;20331;-82
2023/01/22 06:23:32;;;;;;;7.05;4.45;;;1.10;99.90;;;;;;6249122;22;20103;-82
2023/01/22 06:26:00;;;;;;;9.88;4.72;;;0.90;99.90;;;;;;6273866;22;20012;-82
2023/01/22 06:28:26;;;;;;;10.63;4.63;;;0.80;99.90;;;;;;6248087;22;20081;-82
2023/01/22 06:30:56;;;;;;;10.48;4.78;;;1.00;99.90;;;;;;6274159;22;20427;-82
2023/01/22 06:33:22;;;;;;;8.65;4.90;;;1.00;99.90;;;;;;6249125;22;20087;-81
2023/01/22 06:35:55;;;;;;;8.93;4.95;;;0.80;99.90;;;;;;6248725;22;20117;-81
2023/01/22 06:38:22;;;;;;;14.48;5.45;;;1.00;99.90;;;;;;6245301;22;20633;-81
2023/01/22 06:40:55;;;;;;;10.38;4.70;;;0.90;99.90;;;;;;6274349;22;20020;-82
2023/01/22 06:43:21;;;;;;;9.85;5.30;;;0.90;99.90;;;;;;6274984;22;20011;-81
2023/01/22 06:45:47;;;;;;;10.60;5.05;;;0.70;99.90;;;;;;6249145;22;20385;-82
2023/01/22 06:48:12;;;;;;;9.50;5.40;;;1.00;99.90;;;;;;6248534;22;20015;-82
2023/01/22 06:50:38;;;;;;;8.02;5.40;;;0.80;99.90;;;;;;6249155;22;20074;-82
2023/01/22 06:53:04;;;;;;;11.27;6.20;;;0.80;99.90;;;;;;6273116;22;20070;-82
2023/01/22 06:55:30;;;;;;;9.65;5.75;;;0.90;99.90;;;;;;6249200;22;20019;-82
2023/01/22 06:57:56;;;;;;;11.07;5.68;;;0.90;99.90;;;;;;6273510;22;20030;-82
2023/01/22 07:00:22;;;;;;;9.52;5.65;;;0.80;99.90;;;;;;6274988;22;20020;-81
2023/01/22 07:02:49;;;;;;;8.27;5.80;;;0.70;99.90;;;;;;6273821;22;20069;-81
2023/01/22 07:05:15;;;;;;;11.15;6.18;;;0.80;99.90;;;;;;6248639;22;20015;-82
2023/01/22 07:07:41;;;;;;;7.88;6.00;;;0.70;99.90;;;;;;6247789;22;20335;-82
2023/01/22 07:10:08;;;;;;;13.73;6.88;;;0.80;99.90;;;;;;6274217;22;20019;-82
2023/01/22 07:12:33;;;;;;;10.43;6.20;;;0.70;99.90;;;;;;6248962;22;20093;-82
2023/01/22 07:14:59;;;;;;;10.75;7.18;;;0.60;99.90;;;;;;6248048;22;20498;-82
2023/01/22 07:17:25;;;;;;;12.48;6.65;;;0.80;99.90;;;;;;6273737;22;20332;-81
2023/01/22 07:19:50;;;;;;;10.05;6.20;;;0.60;99.90;;;;;;6248123;22;20051;-82
2023/01/22 07:22:16;;;;;;;8.02;6.43;;;0.80;99.90;;;;;;6248263;22;20016;-82
2023/01/22 07:24:42;;;;;;;9.98;6.05;;;0.60;99.90;;;;;;6246560;22;20019;-81
2023/01/22 07:27:07;;;;;;;12.10;7.20;;;0.50;99.90;;;;;;6248061;22;20012;-82
2023/01/22 07:29:33;;;;;;;10.38;6.50;;;0.70;99.90;;;;;;6248935;22;20016;-82
2023/01/22 07:32:01;;;;;;;12.73;7.20;;;0.70;99.90;;;;;;6271808;22;20016;-80
2023/01/22 07:34:26;;;;;;;10.18;7.13;;;0.70;99.90;;;;;;6244726;22;20023;-82
2023/01/22 07:36:52;;;;;;;13.27;7.13;;;0.50;99.90;;;;;;6269702;22;20012;-80
2023/01/22 07:39:18;;;;;;;11.48;6.78;;;0.70;99.90;;;;;;6272296;22;20436;-81
2023/01/22 07:41:44;;;;;;;10.00;6.70;;;0.60;99.90;;;;;;6247078;22;20008;-80
2023/01/22 07:44:11;;;;;;;9.63;6.68;;;0.60;99.90;;;;;;6246004;22;20011;-82
2023/01/22 07:46:40;;;;;;;10.48;7.28;;;0.50;99.90;;;;;;6270899;22;20119;-81
2023/01/22 07:49:06;;;;;;;9.10;6.80;;;0.70;99.90;;;;;;6244550;22;20050;-80
2023/01/22 07:51:32;;;;;;;12.27;7.20;;;0.70;99.90;;;;;;6245138;22;20031;-82
2023/01/22 07:54:03;;;;;;;14.63;7.47;;;0.30;99.90;;;;;;6245356;22;20012;-81
2023/01/22 07:56:35;;;;;;;13.68;7.65;;;0.60;99.90;;;;;;6245328;22;20011;-81
2023/01/22 07:59:01;;;;;;;9.60;7.45;;;0.30;99.90;;;;;;6243213;22;20016;-81
2023/01/22 08:01:26;;;;;;;10.20;6.97;;;0.60;99.90;;;;;;6245890;22;20411;-83
2023/01/22 08:03:56;;;;;;;9.20;6.85;;;0.40;99.90;;;;;;6272705;22;20011;-82
2023/01/22 08:06:24;;;;;;;11.90;7.45;;;0.30;99.90;;;;;;6245849;22;20019;-82
2023/01/22 08:08:50;;;;;;;14.00;8.50;;;0.40;99.90;;;;;;6247122;22;20308;-81
2023/01/22 08:11:16;;;;;;;12.18;7.30;;;0.50;99.90;;;;;;6272741;22;20030;-83
2023/01/22 08:13:41;;;;;;;9.98;7.22;;;0.30;99.90;;;;;;6247717;22;20018;-82
2023/01/22 08:16:08;;;;;;;9.57;7.45;;;0.40;99.90;;;;;;6273630;22;20057;-82
2023/01/22 08:18:35;;;;;;;10.68;7.35;;;0.30;99.90;;;;;;6247536;22;20018;-83
2023/01/22 08:21:01;;;;;;;10.90;7.80;;;0.50;99.90;;;;;;6254052;22;20012;-81
2023/01/22 08:23:27;;;;;;;13.30;7.80;;;0.50;99.90;;;;;;6255075;22;20015;-82
2023/01/22 08:26:00;;;;;;;10.75;7.57;;;0.60;99.90;;;;;;6292676;22;20023;-83
2023/01/22 08:28:26;;;;;;;13.40;7.70;;;0.40;99.90;;;;;;6286246;22;20379;-82
2023/01/22 08:31:04;;;;;;;15.27;7.82;;;0.50;99.90;;;;;;6243427;22;20031;-82
2023/01/22 08:33:32;;;;;;;10.13;7.50;;;0.40;99.90;;;;;;6242735;22;20016;-83
2023/01/22 08:35:58;;;;;;;9.38;7.38;;;0.40;99.90;;;;;;6242727;22;20015;-84
2023/01/22 08:38:23;;;;;;;9.52;6.47;;;0.40;99.90;;;;;;6241418;22;20012;-86
2023/01/22 08:40:50;;;;;;;9.55;6.30;;;0.30;99.90;;;;;;6269594;22;20063;-85
2023/01/22 08:43:19;;;;;;;9.75;6.68;;;0.50;99.90;;;;;;6243297;22;20548;-84
2023/01/22 08:45:47;;;;;;;11.52;7.03;;;0.40;99.90;;;;;;6269401;22;20401;-86
2023/01/22 08:48:13;;;;;;;11.57;6.97;;;0.50;99.90;;;;;;6267274;22;20071;-84
2023/01/22 08:50:39;;;;;;;10.45;7.35;;;0.40;99.90;;;;;;6240007;22;20448;-85
2023/01/22 08:53:04;;;;;;;11.50;7.75;;;0.40;99.90;;;;;;6245565;22;20380;-85
2023/01/22 08:55:30;;;;;;;15.75;7.47;;;0.20;99.90;;;;;;6245222;22;20020;-83
2023/01/22 08:57:56;;;;;;;10.75;7.50;;;0.40;99.90;;;;;;6269274;22;20534;-84
2023/01/22 09:00:23;;;;;;;12.07;7.65;;;0.30;99.90;;;;;;6243480;22;20027;-84
2023/01/22 09:02:52;;;;;;;12.07;7.35;;;0.40;99.90;;;;;;6244893;22;20024;-83
2023/01/22 09:05:24;;;;;;;11.40;7.30;;;0.30;99.90;;;;;;6184434;23;20019;-83
2023/01/22 09:07:55;;;;;;;10.25;7.60;;;0.30;99.90;;;;;;6155152;23;20023;-83
2023/01/22 09:10:31;;;;;;;13.90;7.57;;;0.60;99.90;;;;;;6156291;23;20020;-83
2023/01/22 09:13:06;;;;;;;10.65;7.63;;;0.60;99.90;;;;;;6158120;23;20064;-83
2023/01/22 09:15:38;;;;;;;12.13;7.88;;;0.60;99.90;;;;;;6120858;23;20021;-85
2023/01/22 09:18:04;;;;;;;10.52;7.35;;;0.40;99.90;;;;;;6120410;23;20021;-83
2023/01/22 09:20:29;;;;;;;10.20;6.68;;;0.50;99.90;;;;;;6145576;23;20073;-84
2023/01/22 09:22:55;;;;;;;12.30;7.18;;;0.60;99.90;;;;;;6120958;23;20055;-86
2023/01/22 09:25:25;;;;;;;11.38;6.88;;;0.40;99.90;;;;;;6121899;23;20063;-86
2023/01/22 09:27:59;;;;;;;16.17;7.03;;;0.40;99.90;;;;;;6147299;23;20171;-83
2023/01/22 09:30:26;;;;;;;15.88;7.00;;;0.50;99.90;;;;;;6122465;23;20021;-82
2023/01/22 09:32:52;;;;;;;10.50;6.85;;;0.40;99.90;;;;;;6147624;23;20403;-86
2023/01/22 09:35:21;;;;;;;11.48;7.47;;;0.50;99.90;;;;;;6128132;23;20442;-85
2023/01/22 09:37:47;;;;;;;8.88;6.65;;;0.60;99.90;;;;;;6157623;23;20487;-85
2023/01/22 09:40:38;;;;;;;10.82;7.68;;;0.70;99.90;;;;;;6158208;23;20020;-84
2023/01/22 09:43:31;;;;;;;12.40;7.05;;;0.60;99.90;;;;;;6182226;23;20009;-87
2023/01/22 09:46:04;;;;;;;10.90;7.18;;;0.60;99.90;;;;;;6156999;23;20704;-84
2023/01/22 09:48:38;;;;;;;10.70;7.07;;;0.80;99.90;;;;;;6182289;23;20013;-85
2023/01/22 09:51:04;;;;;;;17.43;6.63;;;0.60;99.90;;;;;;6158591;23;20112;-85
2023/01/22 09:53:31;;;;;;;12.13;6.63;;;0.60;99.90;;;;;;6218244;22;20022;-84
2023/01/22 09:55:57;;;;;;;10.55;7.00;;;0.70;99.90;;;;;;6269476;22;20016;-85
2023/01/22 09:58:25;;;;;;;10.70;6.80;;;0.90;99.90;;;;;;6270088;22;20308;-83
2023/01/22 10:00:58;;;;;;;11.27;6.20;;;1.00;99.90;;;;;;6245227;22;20102;-83
2023/01/22 10:03:27;;;;;;;11.88;7.18;;;0.80;99.90;;;;;;6243831;22;20367;-83
2023/01/22 10:06:02;;;;;;;11.73;6.90;;;1.10;99.90;;;;;;6245912;22;20065;-83
2023/01/22 10:08:50;;;;;;;11.82;6.95;;;1.10;99.90;;;;;;6244869;22;20008;-82
2023/01/22 10:11:16;;;;;;;9.82;7.15;;;1.20;99.90;;;;;;6245108;22;20027;-83
2023/01/22 10:13:44;;;;;;;12.90;7.38;;;1.10;99.90;;;;;;6221324;22;20088;-83
2023/01/22 10:16:11;;;;;;;12.15;6.90;;;1.00;99.90;;;;;;6221455;22;20045;-83
2023/01/22 10:18:52;;;;;;;17.17;6.97;;;1.20;99.90;;;;;;6220046;22;20027;-83
2023/01/22 10:21:23;;;;;;;8.98;6.55;;;1.20;99.90;;;;;;6220119;22;20015;-84
2023/01/22 10:23:50;;;;;;;11.13;7.10;;;1.00;99.90;;;;;;6218117;22;20012;-84
2023/01/22 10:26:27;;;;;;;9.40;6.63;;;1.10;99.90;;;;;;6244274;22;20012;-83
2023/01/22 10:29:05;;;;;;;8.65;6.72;;;1.00;99.90;;;;;;6218386;22;20094;-84
2023/01/22 10:31:34;;;;;;;12.40;6.30;;;1.20;99.90;;;;;;6218813;22;20529;-82
2023/01/22 10:34:03;;;;;;;7.88;6.25;;;1.30;99.90;;;;;;6244321;22;20015;-83
2023/01/22 10:36:30;;;;;;;15.95;6.68;;;1.10;99.90;;;;;;6254267;22;20043;-84
2023/01/22 10:39:12;;;;;;;10.77;6.22;;;1.20;99.90;;;;;;6221321;22;20022;-84
2023/01/22 10:41:38;;;;;;;11.50;6.07;;;1.30;99.90;;;;;;6221464;22;20090;-84
2023/01/22 10:44:25;;;;;;;9.85;5.78;;;1.30;99.90;;;;;;6221943;22;20018;-86
2023/01/22 10:46:52;;;;;;;10.20;5.78;;;1.40;99.90;;;;;;6220839;22;20007;-83
2023/01/22 10:49:23;;;;;;;10.00;5.57;;;1.20;99.90;;;;;;6247224;22;20008;-83
2023/01/22 10:52:03;;;;;;;6.72;5.55;;;1.30;99.90;;;;;;6221848;22;20308;-84
2023/01/22 10:54:42;;;;;;;9.93;5.60;;;1.20;99.90;;;;;;6276010;22;20083;-83
2023/01/22 10:57:20;;;;;;;10.85;5.55;;;1.40;99.90;;;;;;6278720;22;20058;-83
2023/01/22 11:00:20;;;;;;;7.18;5.57;;;1.50;99.90;;;;;;6247812;22;20031;-85
2023/01/22 11:02:48;;;;;;;9.02;5.88;;;1.50;99.90;;;;;;6139591;23;20014;-83
2023/01/22 11:05:16;;;;;;;11.40;6.65;;;1.50;99.90;;;;;;6127717;23;20499;-85
2023/01/22 11:07:43;;;;;;;11.40;6.60;;;1.50;99.90;;;;;;6152218;23;20019;-84
2023/01/22 11:10:30;;;;;;;8.05;6.13;;;1.50;99.90;;;;;;6129830;23;20074;-85
2023/01/22 11:13:24;;;;;;;14.52;6.88;;;1.60;99.90;;;;;;6087763;23;20025;-86
2023/01/22 11:16:01;;;;;;;9.80;6.30;;;1.60;99.90;;;;;;6099205;23;20034;-86
2023/01/22 11:18:35;;;;;;;10.88;6.53;;;1.80;99.90;;;;;;6098152;23;20567;-83
2023/01/22 11:21:03;;;;;;;;;;;1.70;99.90;;;;;;6074497;23;20028;-85
2023/01/22 11:23:51;;;;;;;13.57;6.60;;;1.70;99.90;;;;;;6098168;23;20322;-85
2023/01/22 11:26:41;;;;;;;11.23;7.03;;;1.80;99.90;;;;;;6078589;23;20382;-84
2023/01/22 11:29:35;;;;;;;11.55;6.38;;;1.90;99.90;;;;;;6098405;23;20436;-86
2023/01/22 11:32:19;;;;;;;10.68;7.10;;;1.80;99.90;;;;;;6050843;23;20010;-87
2023/01/22 11:35:01;;;;;;;13.82;6.80;;;2.00;99.90;;;;;;6073530;23;20061;-85
2023/01/22 11:38:06;;;;;;;15.15;6.70;;;2.00;99.90;;;;;;6073874;23;20346;-86
2023/01/22 11:40:35;;;;;;;10.52;6.38;;;2.00;99.90;;;;;;6209111;23;20016;-83
2023/01/22 11:43:25;;;;;;;9.50;5.95;;;1.90;99.90;;;;;;6192949;23;20087;-84
2023/01/22 11:46:09;;;;;;;10.38;6.10;;;2.10;99.90;;;;;;6227460;23;20404;-85
2023/01/22 11:48:44;;;;;;;9.00;5.72;;;2.20;99.90;;;;;;6203203;23;20038;-83
2023/01/22 11:51:32;;;;;;;13.60;6.35;;;2.30;99.90;;;;;;6213152;22;20016;-84
2023/01/22 11:54:15;;;;;;;12.13;6.30;;;2.30;99.90;;;;;;6229806;22;20020;-82
2023/01/22 11:57:00;;;;;;;12.07;6.60;;;2.20;99.90;;;;;;6194111;23;20122;-83
2023/01/22 11:59:40;;;;;;;10.15;6.90;;;2.30;99.90;;;;;;6244448;23;20434;-86
2023/01/22 12:02:41;;;;;;;10.90;6.03;;;2.20;99.90;;;;;;6215596;23;20380;-82
2023/01/22 12:05:19;;;;;;;10.30;5.75;;;2.30;99.90;;;;;;6214260;23;20462;-80
2023/01/22 12:08:00;;;;;;;11.00;5.78;;;2.40;99.90;;;;;;6190348;23;20016;-85
2023/01/22 12:10:58;;;;;;;10.43;5.57;;;2.70;99.90;;;;;;6190015;23;20079;-82
2023/01/22 12:13:36;;;;;;;13.55;5.75;;;2.50;99.90;;;;;;6241987;22;20352;-82
2023/01/22 12:16:47;;;;;;;9.63;5.70;;;2.50;99.90;;;;;;6271150;22;20139;-80
2023/01/22 12:19:39;;;;;;;13.05;5.63;;;2.40;99.90;;;;;;6240724;22;20030;-84
2023/01/22 12:22:22;;;;;;;15.70;6.22;;;2.50;99.90;;;;;;6273363;22;20324;-83
2023/01/22 12:24:55;;;;;;;12.00;5.63;;;2.50;99.90;;;;;;6271676;22;20035;-84
2023/01/22 12:27:53;;;;;;;8.80;5.45;;;2.40;99.90;;;;;;6245866;22;20378;-85
2023/01/22 12:30:33;;;;;;;12.73;5.90;;;2.60;99.90;;;;;;6124130;23;20014;-85
2023/01/22 12:33:00;;;;;;;8.90;6.15;;;2.60;99.90;;;;;;6098227;23;20059;-85
2023/01/22 12:35:30;;;;;;;10.40;5.95;;;2.50;99.90;;;;;;6099493;23;20020;-84
2023/01/22 12:38:25;;;;;;;9.48;5.68;;;2.50;99.90;;;;;;6098274;23;20270;-85
2023/01/22 12:41:21;;;;;;;10.00;5.93;;;2.40;99.90;;;;;;6099725;23;20084;-86
2023/01/22 12:43:56;;;;;;;8.75;6.15;;;2.40;99.90;;;;;;6099774;23;20021;-82
2023/01/22 12:46:28;;;;;;;12.38;6.15;;;2.40;99.90;;;;;;6099018;23;20032;-83
2023/01/22 12:49:04;;;;;;;13.52;5.88;;;2.40;99.90;;;;;;6099111;23;20013;-82
2023/01/22 12:51:50;;;;;;;10.63;5.63;;;2.40;99.90;;;;;;6100372;23;20112;-87
2023/01/22 12:54:24;;;;;;;12.23;5.75;;;2.40;99.90;;;;;;6096253;23;20083;-82
2023/01/22 12:56:55;;;;;;;12.00;6.00;;;2.50;99.90;;;;;;6147991;23;20469;-83
2023/01/22 12:59:35;;;;;;;11.80;5.35;;;2.50;99.90;;;;;;6099842;23;20713;-83
2023/01/22 13:02:04;;;;;;;9.23;5.95;;;2.40;99.90;;;;;;6097396;23;20327;-83
2023/01/22 13:04:32;;;;;;;13.38;6.32;;;2.40;99.90;;;;;;6122056;23;20013;-83
2023/01/22 13:07:17;;;;;;;11.50;5.95;;;2.30;99.90;;;;;;6179064;22;20015;-82
2023/01/22 13:09:43;;;;;;;15.45;6.53;;;2.30;99.90;;;;;;6268774;22;20050;-82